Terminal Aerodrome Forecast
Issued by NWS Wakefield, VA

Home | Current Version | Previous Version | Text Only | Print | Product List | Glossary On
Versions: 1 2 3 4 5 6 7 8 9 10 11 12 13 14 15 16 17 18 19 20 21 22 23 24 25 26 27 28 29 30 31 32 33
921
FTUS41 KAKQ 050022 AAA
TAFRIC
TAF AMD
KRIC 050022Z 0500/0524 07004KT P6SM BKN007 OVC050
      TEMPO 0500/0502 SCT007 BKN050
     FM050200 06004KT P6SM OVC007
     FM050400 05004KT 4SM BR OVC005
     FM050700 05004KT 4SM BR OVC003
     FM051300 04008KT P6SM OVC008
     FM051600 04010KT 5SM SHRA OVC015=

USA.gov is the U.S. government's official web portal to all federal, state and local government web resources and services.